createdAt,value
2022-08-17T00:00:38.018Z,99415.77
2022-08-17T00:05:45.065Z,99417.67
2022-08-17T00:10:51.576Z,99419.54
2022-08-17T00:16:00.271Z,99423.17
2022-08-17T00:21:10.342Z,99424.91
2022-08-17T00:26:16.611Z,99429.18
2022-08-17T00:31:42.312Z,99426.60
2022-08-17T00:36:47.694Z,99431.84
2022-08-17T00:41:53.831Z,99428.45
2022-08-17T00:47:00.147Z,99430.45
2022-08-17T00:52:12.050Z,99427.52
2022-08-17T00:57:20.260Z,99434.21
2022-08-17T01:02:26.789Z,99435.36
2022-08-17T01:07:32.076Z,99436.84
2022-08-17T01:12:43.816Z,99434.36
2022-08-17T01:17:50.539Z,99439.56
2022-08-17T01:22:56.068Z,99444.52
2022-08-17T01:28:02.927Z,99446.79
2022-08-17T01:33:11.790Z,99447.22
2022-08-17T01:38:17.496Z,99443.58
2022-08-17T01:43:34.495Z,99442.29
2022-08-17T01:48:40.696Z,99448.17
2022-08-17T01:53:49.438Z,99442.64
2022-08-17T01:58:55.413Z,99435.86
2022-08-17T02:04:01.995Z,99436.31
2022-08-17T02:09:07.980Z,99432.48
2022-08-17T02:14:22.265Z,99430.45
2022-08-17T02:19:27.612Z,99433.38
2022-08-17T02:24:59.441Z,99434.36
2022-08-17T02:30:00.290Z,99434.77
2022-08-17T02:35:06.350Z,99438.77
2022-08-17T02:40:15.216Z,99439.65
2022-08-17T02:45:23.234Z,99435.10
2022-08-17T02:50:28.838Z,99439.30
2022-08-17T02:55:35.974Z,99444.59
2022-08-17T03:00:42.669Z,99448.48
2022-08-17T03:05:49.837Z,99451.67
2022-08-17T03:10:55.404Z,99455.68
2022-08-17T03:16:00.684Z,99464.17
2022-08-17T03:21:07.234Z,99464.88
2022-08-17T03:26:15.540Z,99460.20
2022-08-17T03:31:22.247Z,99454.92
2022-08-17T03:36:27.806Z,99450.32
2022-08-17T03:41:33.475Z,99452.81
2022-08-17T03:46:57.349Z,99449.89
2022-08-17T03:52:20.432Z,99451.85
2022-08-17T03:57:26.135Z,99450.97
2022-08-17T04:02:32.801Z,99454.60
2022-08-17T04:07:38.592Z,99457.23
2022-08-17T04:12:49.124Z,99460.13
2022-08-17T04:17:54.725Z,99462.09
2022-08-17T04:23:02.525Z,99471.67
2022-08-17T04:28:16.318Z,99481.27
2022-08-17T04:33:24.419Z,99481.83
2022-08-17T04:38:31.516Z,99484.52
2022-08-17T04:43:37.877Z,99488.16
2022-08-17T04:48:44.615Z,99486.77
2022-08-17T04:53:54.044Z,99488.51
2022-08-17T04:59:01.204Z,99491.63
2022-08-17T05:04:33.220Z,99491.55
2022-08-17T05:09:33.114Z,99486.52
2022-08-17T05:14:40.144Z,99487.48
2022-08-17T05:19:49.992Z,99488.27
2022-08-17T05:24:57.761Z,99489.13
2022-08-17T05:30:03.510Z,99487.52
2022-08-17T05:35:10.057Z,99483.39
2022-08-17T05:40:16.060Z,99480.88
2022-08-17T05:45:54.489Z,99484.31
2022-08-17T05:50:50.983Z,99487.33
2022-08-17T05:56:02.042Z,99490.30
2022-08-17T06:01:09.892Z,99494.77
2022-08-17T06:06:31.360Z,99500.27
2022-08-17T06:11:40.768Z,99505.42
2022-08-17T06:16:48.105Z,99510.40
2022-08-17T06:21:55.407Z,99507.84
2022-08-17T06:27:03.483Z,99507.80
2022-08-17T06:32:12.114Z,99504.70
2022-08-17T06:37:29.069Z,99507.05
2022-08-17T06:43:04.105Z,99509.39
2022-08-17T06:48:08.270Z,99511.40
2022-08-17T06:53:21.367Z,99511.63
2022-08-17T06:58:29.765Z,99515.85
2022-08-17T07:03:38.457Z,99520.98
2022-08-17T07:08:50.246Z,99520.58
2022-08-17T07:14:00.666Z,99515.34
2022-08-17T07:19:07.703Z,99521.86
2022-08-17T07:24:29.372Z,99520.17
2022-08-17T07:29:41.910Z,99517.16
2022-08-17T07:35:11.607Z,99522.43
2022-08-17T07:40:22.603Z,99521.85
2022-08-17T07:45:45.509Z,99524.52
2022-08-17T07:50:54.835Z,99526.33
2022-08-17T07:56:00.168Z,99519.83
2022-08-17T08:06:48.818Z,99517.23
2022-08-17T08:11:54.763Z,99517.73
2022-08-17T08:17:01.081Z,99519.86
2022-08-17T08:22:08.069Z,99524.95
2022-08-17T08:27:21.470Z,99526.08
2022-08-17T08:32:34.784Z,99527.03
2022-08-17T08:37:47.046Z,99524.52
2022-08-17T08:42:57.107Z,99525.14
2022-08-17T08:48:23.133Z,99521.58
2022-08-17T08:53:37.939Z,99526.66
2022-08-17T08:58:47.623Z,99532.97
2022-08-17T09:04:23.432Z,99529.99
2022-08-17T09:09:39.766Z,99522.56
2022-08-17T09:14:49.979Z,99529.61
2022-08-17T09:19:57.893Z,99522.63
2022-08-17T09:25:09.375Z,99521.66
2022-08-17T09:30:16.250Z,99524.64
2022-08-17T09:35:32.875Z,99515.67
2022-08-17T09:40:46.906Z,99519.34
2022-08-17T09:45:54.650Z,99523.61
2022-08-17T09:51:04.812Z,99526.17
2022-08-17T09:56:25.576Z,99532.65
2022-08-17T10:01:35.829Z,99529.89
2022-08-17T10:06:48.063Z,99525.63
2022-08-17T10:12:17.155Z,99522.92
2022-08-17T10:17:27.182Z,99525.81
2022-08-17T10:22:54.782Z,99522.34
2022-08-17T10:28:01.596Z,99522.98
2022-08-17T10:33:08.512Z,99524.91
2022-08-17T10:38:36.925Z,99526.73
2022-08-17T10:44:28.561Z,99517.11
2022-08-17T10:49:25.331Z,99522.54
2022-08-17T10:54:43.718Z,99521.33
2022-08-17T10:59:53.394Z,99520.17
2022-08-17T11:05:09.284Z,99529.40
2022-08-17T11:10:27.680Z,99524.58
2022-08-17T11:15:42.836Z,99517.08
2022-08-17T11:21:01.265Z,99522.42
2022-08-17T11:26:21.649Z,99523.30
2022-08-17T11:31:38.761Z,99518.89
2022-08-17T11:36:58.042Z,99515.52
2022-08-17T11:42:07.014Z,99515.30
2022-08-17T11:47:33.966Z,99515.05
2022-08-17T11:52:41.080Z,99514.02
2022-08-17T11:58:02.009Z,99518.76
2022-08-17T12:03:25.414Z,99512.95
2022-08-17T12:08:33.025Z,99509.69
2022-08-17T12:13:40.521Z,99513.39
2022-08-17T12:18:50.352Z,99513.40
2022-08-17T12:23:59.189Z,99511.90
2022-08-17T12:29:06.399Z,99511.24
2022-08-17T12:34:17.997Z,99510.91
2022-08-17T12:39:25.180Z,99513.61
2022-08-17T12:44:32.518Z,99521.77
2022-08-17T12:49:38.723Z,99525.44
2022-08-17T12:54:48.493Z,99527.54
2022-08-17T12:59:56.269Z,99524.98
2022-08-17T13:05:03.061Z,99525.70
2022-08-17T13:10:08.863Z,99525.07
2022-08-17T13:15:21.601Z,99530.84
2022-08-17T13:20:26.954Z,99532.22
2022-08-17T13:25:32.756Z,99532.42
2022-08-17T13:30:38.325Z,99538.59
2022-08-17T13:35:50.321Z,99535.00
2022-08-17T13:40:55.926Z,99532.69
2022-08-17T13:46:09.088Z,99535.60
2022-08-17T13:51:30.286Z,99531.62
2022-08-17T13:56:58.047Z,99524.77
2022-08-17T14:02:05.304Z,99522.16
2022-08-17T14:12:42.556Z,99523.40
2022-08-17T14:17:49.722Z,99519.11
2022-08-17T14:22:56.298Z,99525.21
2022-08-17T14:28:01.933Z,99528.17
2022-08-17T14:33:08.707Z,99531.76
2022-08-17T14:38:15.499Z,99531.56
2022-08-17T14:43:21.408Z,99529.64
2022-08-17T14:48:27.444Z,99530.27
2022-08-17T14:53:33.247Z,99527.19
2022-08-17T14:58:39.297Z,99526.56
2022-08-17T15:03:45.514Z,99526.30
2022-08-17T15:08:51.113Z,99523.55
2022-08-17T15:13:56.780Z,99522.20
2022-08-17T15:19:02.210Z,99525.30
2022-08-17T15:24:08.947Z,99515.95
2022-08-17T15:29:14.462Z,99517.92
2022-08-17T15:34:20.058Z,99516.68
2022-08-17T15:39:25.446Z,99521.37
2022-08-17T15:44:34.835Z,99530.26
2022-08-17T15:49:43.018Z,99530.00
2022-08-17T15:54:53.603Z,99536.26
2022-08-17T15:59:59.633Z,99538.34
2022-08-17T16:05:10.115Z,99543.05
2022-08-17T16:10:19.050Z,99540.39
2022-08-17T16:15:25.670Z,99537.61
2022-08-17T16:20:31.509Z,99544.61
2022-08-17T16:25:50.357Z,99545.81
2022-08-17T16:30:58.949Z,99550.08
2022-08-17T16:36:04.882Z,99552.27
2022-08-17T16:41:10.752Z,99554.41
2022-08-17T16:46:16.379Z,99560.73
2022-08-17T16:51:21.968Z,99561.05
2022-08-17T16:56:27.734Z,99554.92
2022-08-17T17:01:33.454Z,99566.94
2022-08-17T17:06:45.495Z,99560.08
2022-08-17T17:11:53.249Z,99561.13
2022-08-17T17:17:04.433Z,99563.36
2022-08-17T17:22:15.182Z,99562.51
2022-08-17T17:27:26.649Z,99568.54
2022-08-17T17:32:39.138Z,99573.08
2022-08-17T17:37:45.661Z,99574.08
2022-08-17T17:42:54.245Z,99572.04
2022-08-17T17:47:59.763Z,99571.64
2022-08-17T17:53:07.937Z,99579.51
2022-08-17T17:58:24.026Z,99590.28
2022-08-17T18:03:35.193Z,99597.02
2022-08-17T18:08:47.778Z,99600.62
2022-08-17T18:14:00.220Z,99601.10
2022-08-17T18:19:07.118Z,99608.64
2022-08-17T18:24:12.857Z,99614.45
2022-08-17T18:29:36.265Z,99622.11
2022-08-17T18:34:47.747Z,99621.46
2022-08-17T18:39:54.194Z,99614.92
2022-08-17T18:44:59.603Z,99613.33
2022-08-17T18:50:18.540Z,99609.69
2022-08-17T18:55:25.068Z,99613.55
2022-08-17T19:00:37.296Z,99619.00
2022-08-17T19:05:44.357Z,99618.61
2022-08-17T19:10:51.966Z,99624.02
2022-08-17T19:16:14.177Z,99628.30
2022-08-17T19:21:23.225Z,99623.21
2022-08-17T19:26:53.978Z,99624.83
2022-08-17T19:31:56.718Z,99635.88
2022-08-17T19:37:04.755Z,99639.34
2022-08-17T19:42:14.842Z,99646.47
2022-08-17T19:47:50.876Z,99650.40
2022-08-17T19:52:58.143Z,99649.69
2022-08-17T19:58:08.211Z,99651.00
2022-08-17T20:03:16.770Z,99652.91
2022-08-17T20:08:25.673Z,99655.84
2022-08-17T20:13:35.573Z,99662.84
2022-08-17T20:18:47.501Z,99670.83
2022-08-17T20:23:55.773Z,99677.23
2022-08-17T20:29:37.624Z,99681.73
2022-08-17T20:34:46.993Z,99674.64
2022-08-17T20:40:12.747Z,99675.00
2022-08-17T20:45:40.883Z,99679.01
2022-08-17T20:50:49.067Z,99687.13
2022-08-17T20:55:56.491Z,99688.90
2022-08-17T21:01:15.139Z,99694.08
2022-08-17T21:06:21.676Z,99702.30
2022-08-17T21:12:02.306Z,99711.83
2022-08-17T21:17:17.937Z,99718.77
2022-08-17T21:22:32.316Z,99712.28
2022-08-17T21:27:44.258Z,99719.40
2022-08-17T21:38:36.436Z,99727.27
2022-08-17T21:43:48.293Z,99732.20
2022-08-17T21:48:55.687Z,99729.73
2022-08-17T21:54:03.280Z,99729.20
2022-08-17T21:59:10.330Z,99719.70
2022-08-17T22:04:21.277Z,99714.03
2022-08-17T22:09:27.526Z,99713.73
2022-08-17T22:14:52.691Z,99715.64
2022-08-17T22:20:01.759Z,99702.81
2022-08-17T22:25:08.389Z,99699.06
2022-08-17T22:30:19.042Z,99706.84
2022-08-17T22:35:38.379Z,99705.59
2022-08-17T22:40:44.405Z,99697.05
2022-08-17T22:45:51.844Z,99690.83
2022-08-17T22:51:13.553Z,99684.11
2022-08-17T22:56:39.526Z,99676.89
2022-08-17T23:01:46.056Z,99676.11
2022-08-17T23:06:51.516Z,99673.04
2022-08-17T23:11:59.012Z,99664.91
2022-08-17T23:17:04.738Z,99660.56
2022-08-17T23:22:11.429Z,99666.61
2022-08-17T23:27:16.967Z,99663.11
2022-08-17T23:32:22.598Z,99661.64
2022-08-17T23:37:28.866Z,99652.23
2022-08-17T23:42:35.314Z,99647.56
2022-08-17T23:47:40.816Z,99635.77
2022-08-17T23:52:47.045Z,99647.08
2022-08-17T23:57:52.328Z,99651.27
